Time;durP1;ratioP1;P1;durP2;ratioP2;P2;SDS_P1;SDS_P2;PMS_P1;PMS_P2;Temp;Humidity;BMP_temperature;BMP_pressure;BME280_temperature;BME280_humidity;BME280_pressure;Samples;Min_cycle;Max_cycle;Signal;HPM_P1;HPM_P2
2022/03/19 08:14:29;;;;;;;16.42;8.23;;;;;;;7.83;44.90;101783.03;4240259;33;20107;-96
2022/03/19 08:18:20;;;;;;;14.75;6.90;;;;;;;7.86;44.51;101783.13;4245229;33;33481;-96
2022/03/19 08:21:33;;;;;;;9.15;6.12;;;;;;;8.02;43.85;101783.59;4234966;33;33611;-96
2022/03/19 08:25:27;;;;;;;11.38;7.00;;;;;;;8.47;44.07;101784.12;4246165;33;269394;-95
2022/03/19 08:28:17;;;;;;;12.43;6.72;;;;;;;8.45;43.29;101779.75;4230914;33;33037;-96
2022/03/19 08:31:37;;;;;;;10.23;7.37;;;;;;;8.67;42.89;101773.47;4235649;33;33041;-96
2022/03/19 08:34:08;;;;;;;11.82;6.95;;;;;;;8.54;43.41;101783.47;4239458;33;35557;-96
2022/03/19 08:36:58;;;;;;;13.35;7.50;;;;;;;8.67;42.62;101783.81;4240093;33;33760;-95
2022/03/19 08:40:49;;;;;;;11.32;6.07;;;;;;;8.87;41.93;101766.28;4233144;33;33103;-96
2022/03/19 08:44:07;;;;;;;13.10;7.15;;;;;;;9.28;41.91;101780.31;4237381;33;32925;-95
2022/03/19 08:48:19;;;;;;;12.60;7.70;;;;;;;9.11;41.98;101779.88;4235095;33;32334;-95
2022/03/19 08:54:41;;;;;;;10.90;6.55;;;;;;;8.12;43.52;101781.34;4235631;33;34100;-96
2022/03/19 08:58:13;;;;;;;10.15;6.30;;;;;;;8.26;43.32;101773.13;4231694;33;32766;-95
2022/03/19 09:00:46;;;;;;;14.52;6.85;;;;;;;8.70;42.68;101777.03;4257552;33;34116;-96
2022/03/19 09:03:28;;;;;;;11.57;7.30;;;;;;;8.24;43.12;101765.34;4247616;33;32672;-96
2022/03/19 09:07:18;;;;;;;12.68;6.75;;;;;;;9.21;41.50;101777.53;4242171;33;34622;-96
2022/03/19 09:10:07;;;;;;;9.23;5.75;;;;;;;9.90;39.67;101776.59;4242230;33;33155;-94
2022/03/19 09:12:57;;;;;;;16.07;8.07;;;;;;;9.96;40.10;101775.03;4236028;33;32489;-95
2022/03/19 09:15:26;;;;;;;10.20;7.12;;;;;;;10.12;38.98;101765.84;4240937;33;33127;-93
2022/03/19 09:17:55;;;;;;;11.23;6.55;;;;;;;10.25;38.76;101770.50;4249307;33;33742;-95
2022/03/19 09:20:26;;;;;;;14.75;7.43;;;;;;;10.56;39.00;101778.94;4251281;33;33504;-93
2022/03/19 09:22:55;;;;;;;11.27;7.28;;;;;;;10.34;38.68;101771.53;4258576;33;31399;-94
2022/03/19 09:25:24;;;;;;;14.65;7.70;;;;;;;10.78;37.65;101774.19;4252261;33;33548;-94
2022/03/19 09:27:53;;;;;;;11.63;6.53;;;;;;;11.06;37.07;101772.97;4256930;33;33138;-95
2022/03/19 09:30:22;;;;;;;12.23;6.72;;;;;;;10.64;36.79;101777.38;4244008;33;32054;-93
2022/03/19 09:32:56;;;;;;;12.60;7.50;;;;;;;11.25;36.43;101771.56;4257790;33;32867;-96
2022/03/19 09:40:51;;;;;;;12.27;6.78;;;;;;;11.39;35.21;101770.09;4237431;33;32327;-96
2022/03/19 09:43:40;;;;;;;13.63;6.47;;;;;;;11.21;35.19;101764.56;4226961;33;33776;-96
2022/03/19 09:46:29;;;;;;;11.30;7.03;;;;;;;11.47;34.17;101763.28;4240052;33;32702;-96
2022/03/19 09:48:59;;;;;;;11.50;7.30;;;;;;;11.26;34.69;101773.31;4240142;33;33522;-95
2022/03/19 09:52:08;;;;;;;10.70;6.90;;;;;;;11.52;34.34;101760.75;4238071;33;33923;-96
2022/03/19 09:54:39;;;;;;;10.93;6.10;;;;;;;11.16;34.80;101766.22;4240511;33;32972;-96
2022/03/19 09:57:54;;;;;;;9.15;4.75;;;;;;;11.25;34.20;101776.78;4244124;33;32528;-95
2022/03/19 10:01:07;;;;;;;11.57;7.12;;;;;;;11.31;34.33;101767.38;4259943;33;33513;-95
2022/03/19 10:08:35;;;;;;;11.82;6.68;;;;;;;11.05;35.01;101773.81;4246685;33;32491;-96
2022/03/19 10:08:51;;;;;;;8.32;5.05;;;;;;;10.74;35.43;101768.06;4241045;33;33925;-96
2022/03/19 10:12:00;;;;;;;8.45;5.57;;;;;;;11.31;35.28;101766.50;4239312;33;33316;-95
2022/03/19 10:15:10;;;;;;;10.73;5.87;;;;;;;11.75;34.65;101754.19;4237742;33;32581;-96
2022/03/19 10:19:27;;;;;;;10.50;6.70;;;;;;;11.06;36.27;101766.03;4238315;33;33896;-96
2022/03/19 10:22:58;;;;;;;8.93;5.93;;;;;;;11.65;33.92;101756.66;4238902;33;34352;-95
2022/03/19 10:25:51;;;;;;;10.88;5.55;;;;;;;11.80;33.47;101746.47;4239425;33;32359;-96
2022/03/19 10:28:43;;;;;;;9.50;5.62;;;;;;;11.67;33.53;101749.72;4237403;33;32692;-94
2022/03/19 10:31:50;;;;;;;11.65;6.45;;;;;;;11.85;34.35;101738.75;4223863;33;32787;-96
2022/03/19 10:35:02;;;;;;;10.05;5.87;;;;;;;11.80;33.95;101746.47;4231341;33;34379;-96
2022/03/19 10:38:18;;;;;;;14.70;6.90;;;;;;;11.94;33.08;101737.19;4232989;33;31543;-95
2022/03/19 10:41:08;;;;;;;9.82;7.37;;;;;;;12.00;33.24;101740.72;4235136;33;32153;-96
2022/03/19 10:44:38;;;;;;;11.82;6.75;;;;;;;12.09;33.08;101733.91;4239548;33;33606;-96
2022/03/19 10:47:49;;;;;;;10.48;5.82;;;;;;;11.52;33.15;101746.06;4235112;33;32803;-96
2022/03/19 10:51:01;;;;;;;9.73;6.32;;;;;;;11.91;32.56;101742.34;4234208;33;33341;-96
2022/03/19 10:54:42;;;;;;;12.48;6.57;;;;;;;12.07;32.34;101735.63;4235947;33;32742;-95
2022/03/19 10:58:49;;;;;;;11.85;5.97;;;;;;;10.57;34.76;101739.16;4245070;33;32961;-96
2022/03/19 11:02:12;;;;;;;6.72;4.47;;;;;;;10.58;34.89;101735.75;4242605;33;32946;-96
2022/03/19 11:06:22;;;;;;;10.30;6.50;;;;;;;11.23;33.44;101729.09;4241072;33;32326;-95
2022/03/19 11:09:16;;;;;;;8.00;5.30;;;;;;;11.82;32.03;101728.31;4228646;33;32980;-95
2022/03/19 11:12:28;;;;;;;9.13;5.50;;;;;;;11.63;31.66;101720.22;4244966;33;33905;-95
2022/03/19 11:15:38;;;;;;;7.20;4.35;;;;;;;11.76;31.71;101713.47;4224886;33;32919;-93
2022/03/19 11:19:12;;;;;;;7.75;4.15;;;;;;;11.45;29.81;101707.84;4223921;33;32939;-96
2022/03/19 11:23:24;;;;;;;8.40;5.18;;;;;;;11.11;31.07;101701.19;4242213;33;32311;-96
2022/03/19 11:27:15;;;;;;;10.35;3.62;;;;;;;11.10;30.11;101699.44;4230973;33;33387;-95
2022/03/19 11:31:18;;;;;;;7.85;4.07;;;;;;;11.94;28.62;101687.75;4229399;33;33668;-96
2022/03/19 11:35:08;;;;;;;7.47;5.03;;;;;;;11.66;28.89;101675.19;4218577;34;32211;-96
2022/03/19 11:38:25;;;;;;;10.02;5.53;;;;;;;11.33;29.23;101681.63;4218360;34;32837;-96
2022/03/19 11:42:17;;;;;;;8.85;5.37;;;;;;;11.60;29.90;101681.19;4221049;33;32937;-96
2022/03/19 11:45:14;;;;;;;10.35;5.72;;;;;;;11.93;29.43;101675.59;4227394;33;35061;-95
2022/03/19 11:49:00;;;;;;;7.65;4.75;;;;;;;11.35;30.05;101666.94;4227538;33;35098;-96
2022/03/19 11:52:10;;;;;;;9.70;5.68;;;;;;;11.04;30.27;101663.87;4228885;33;33923;-96
2022/03/19 11:55:44;;;;;;;10.25;6.78;;;;;;;11.50;30.57;101664.59;4226683;33;33279;-96
2022/03/19 11:58:37;;;;;;;9.65;5.93;;;;;;;12.06;30.25;101657.56;4225621;33;32994;-96
2022/03/19 12:02:55;;;;;;;7.62;5.05;;;;;;;12.47;29.17;101651.97;4231230;33;32447;-96
2022/03/19 12:06:36;;;;;;;8.20;5.15;;;;;;;12.45;29.63;101656.28;4224819;33;33756;-96
2022/03/19 12:10:42;;;;;;;9.75;5.60;;;;;;;11.49;29.26;101649.81;4233224;33;34417;-96
2022/03/19 12:13:57;;;;;;;8.52;5.35;;;;;;;11.54;29.27;101655.97;4232463;33;36318;-96
2022/03/19 12:16:50;;;;;;;9.32;5.20;;;;;;;11.16;30.14;101641.53;4243345;33;33278;-96
2022/03/19 12:20:23;;;;;;;8.25;4.07;;;;;;;12.63;27.84;101646.03;4242846;33;32732;-96
2022/03/19 12:23:13;;;;;;;8.32;4.62;;;;;;;12.94;26.56;101643.72;4243753;33;35176;-96
2022/03/19 12:26:25;;;;;;;10.57;6.50;;;;;;;13.02;27.39;101649.84;4244170;33;34299;-96
2022/03/19 12:29:54;;;;;;;10.48;5.22;;;;;;;12.89;27.38;101643.66;4231695;33;33667;-95
2022/03/19 12:33:34;;;;;;;6.72;4.10;;;;;;;12.93;27.54;101644.56;4247637;33;33645;-96
2022/03/19 12:36:39;;;;;;;10.05;4.97;;;;;;;12.37;27.84;101643.16;4248347;33;33644;-96
2022/03/19 12:40:08;;;;;;;7.57;4.47;;;;;;;12.98;27.15;101645.47;4242000;33;33719;-96
2022/03/19 12:43:05;;;;;;;6.85;4.57;;;;;;;12.96;26.83;101629.81;4247469;33;34012;-95
2022/03/19 12:46:47;;;;;;;9.10;4.75;;;;;;;13.43;26.17;101637.16;4243208;33;32934;-96
2022/03/19 12:50:15;;;;;;;8.30;4.30;;;;;;;13.08;26.73;101634.28;4238493;33;34558;-96
2022/03/19 12:53:44;;;;;;;8.13;4.57;;;;;;;13.35;25.92;101632.75;4251065;33;32194;-96
2022/03/19 12:56:38;;;;;;;6.80;4.82;;;;;;;12.47;26.83;101636.34;4248293;33;32542;-95
2022/03/19 13:00:10;;;;;;;8.55;4.65;;;;;;;12.76;26.27;101624.47;4239868;33;34169;-94
2022/03/19 13:03:09;;;;;;;9.93;5.50;;;;;;;13.36;25.95;101631.88;4239990;33;33546;-94
2022/03/19 13:05:51;;;;;;;;;;;;;;;12.28;27.00;101627.47;4242840;33;34212;-93
2022/03/19 13:09:07;;;;;;;8.65;4.82;;;;;;;12.09;27.18;101629.84;4243462;33;33014;-95
2022/03/19 13:12:07;;;;;;;7.82;4.53;;;;;;;12.98;25.95;101632.47;4241878;33;34323;-96
2022/03/19 13:14:50;;;;;;;9.98;4.57;;;;;;;13.00;25.65;101628.12;4250407;33;33969;-95
2022/03/19 13:17:21;;;;;;;8.55;4.78;;;;;;;13.28;24.67;101617.94;4253297;33;32371;-95
2022/03/19 13:19:51;;;;;;;9.65;4.57;;;;;;;13.23;25.00;101621.34;4238952;33;33707;-93
2022/03/19 13:22:21;;;;;;;7.85;4.07;;;;;;;13.27;25.39;101610.97;4244109;33;33238;-94
2022/03/19 13:24:53;;;;;;;10.65;4.95;;;;;;;13.59;24.48;101626.81;4256957;33;33965;-92
2022/03/19 13:27:53;;;;;;;9.52;4.60;;;;;;;13.57;24.35;101633.75;4248880;33;34483;-95
2022/03/19 13:30:52;;;;;;;8.05;3.95;;;;;;;13.47;23.82;101634.56;4239736;33;32279;-96
2022/03/19 13:33:27;;;;;;;7.18;4.05;;;;;;;13.61;23.69;101628.56;4254986;33;33490;-94
2022/03/19 13:36:17;;;;;;;8.25;3.87;;;;;;;13.71;23.38;101620.78;4253517;33;33955;-94
2022/03/19 13:40:02;;;;;;;7.53;3.53;;;;;;;13.37;23.43;101616.25;4254951;33;32733;-96
2022/03/19 13:43:13;;;;;;;7.40;3.45;;;;;;;14.11;23.12;101616.59;4240980;33;33450;-96
2022/03/19 13:46:39;;;;;;;7.20;3.92;;;;;;;14.38;22.41;101609.72;4246837;33;33872;-94
2022/03/19 13:49:56;;;;;;;7.90;4.95;;;;;;;14.40;21.86;101598.41;4255979;33;33633;-95
2022/03/19 13:52:46;;;;;;;6.90;4.47;;;;;;;14.71;22.13;101599.34;4259657;33;33842;-93
2022/03/19 13:55:36;;;;;;;14.50;4.07;;;;;;;13.38;21.93;101609.31;4239448;33;31966;-95
2022/03/19 13:59:16;;;;;;;8.30;4.65;;;;;;;13.87;21.68;101609.56;4255090;33;33606;-95
2022/03/19 14:01:50;;;;;;;6.72;3.97;;;;;;;13.06;22.01;101607.31;4252998;33;34756;-93
2022/03/19 14:04:19;;;;;;;7.00;3.67;;;;;;;13.07;22.37;101597.75;4244262;33;33715;-94
2022/03/19 14:06:50;;;;;;;9.73;3.72;;;;;;;13.59;21.30;101598.12;4256182;33;32765;-92
2022/03/19 14:09:20;;;;;;;;;;;;;;;13.26;21.41;101594.41;4254737;33;34517;-95
2022/03/19 14:11:57;;;;;;;9.38;3.92;;;;;;;13.60;21.23;101605.06;4256690;33;33055;-96
2022/03/19 14:14:28;;;;;;;6.65;3.25;;;;;;;13.75;20.99;101599.06;4245722;33;32113;-94
2022/03/19 14:17:19;;;;;;;5.40;3.47;;;;;;;13.00;20.57;101602.09;4245390;33;31805;-96
2022/03/19 14:20:09;;;;;;;7.28;4.10;;;;;;;13.95;20.25;101597.41;4242086;33;32980;-96
2022/03/19 14:23:26;;;;;;;5.53;2.85;;;;;;;13.96;20.13;101599.13;4244567;33;33093;-96
2022/03/19 14:26:57;;;;;;;4.47;2.92;;;;;;;14.69;18.76;101603.69;4248460;33;33966;-96
2022/03/19 14:29:33;;;;;;;5.80;3.45;;;;;;;15.09;18.64;101597.56;4252383;33;33202;-94
2022/03/19 14:32:16;;;;;;;7.25;3.45;;;;;;;14.86;18.50;101592.34;4246299;33;34319;-96
2022/03/19 14:35:26;;;;;;;7.47;3.28;;;;;;;14.44;19.01;101588.81;4249429;33;36913;-96
2022/03/19 14:38:46;;;;;;;5.57;2.67;;;;;;;14.44;19.33;101594.03;4239530;33;32840;-95
2022/03/19 14:41:59;;;;;;;5.72;3.33;;;;;;;15.20;18.51;101600.16;4239170;33;33108;-95
2022/03/19 14:45:06;;;;;;;4.68;2.65;;;;;;;15.06;18.45;101597.56;4240018;33;33327;-95
2022/03/19 14:48:17;;;;;;;7.95;2.65;;;;;;;14.50;18.57;101609.72;4242771;33;33744;-96
2022/03/19 14:51:26;;;;;;;;;;;;;;;14.05;18.69;101588.72;4248247;33;32398;-94
2022/03/19 14:54:15;;;;;;;8.40;3.15;;;;;;;15.15;18.29;101593.19;4241873;33;33752;-95
2022/03/19 14:57:25;;;;;;;5.75;3.05;;;;;;;14.73;18.05;101594.09;4252639;33;33256;-95
2022/03/19 15:00:55;;;;;;;9.13;3.45;;;;;;;15.50;17.63;101583.53;4255260;33;34315;-96
2022/03/19 15:04:48;;;;;;;9.70;3.40;;;;;;;16.07;17.35;101589.44;4238186;33;32627;-96
2022/03/19 15:07:45;;;;;;;7.50;3.00;;;;;;;14.85;18.11;101588.88;4234612;33;33540;-96
2022/03/19 15:10:16;;;;;;;6.32;2.75;;;;;;;14.09;18.71;101597.47;4238199;33;32781;-96
2022/03/19 15:13:27;;;;;;;5.32;3.30;;;;;;;14.64;18.80;101594.09;4255255;33;33455;-96
2022/03/19 15:16:19;;;;;;;5.03;2.92;;;;;;;14.55;18.87;101597.59;4238112;33;34732;-96
2022/03/19 15:18:48;;;;;;;5.60;2.97;;;;;;;14.67;18.79;101594.09;4230242;33;32702;-95
2022/03/19 15:22:24;;;;;;;5.30;3.30;;;;;;;13.00;19.83;101594.25;4254450;33;34812;-96
2022/03/19 15:24:53;;;;;;;4.70;2.73;;;;;;;13.56;19.81;101609.41;4245071;33;33854;-95
2022/03/19 15:28:03;;;;;;;6.97;4.25;;;;;;;12.22;20.53;101594.41;4246425;33;34350;-96
2022/03/19 15:30:53;;;;;;;5.55;2.85;;;;;;;11.99;20.76;101595.91;4261499;33;33850;-95
2022/03/19 15:33:56;;;;;;;6.50;4.05;;;;;;;12.29;20.42;101600.56;4244139;33;34431;-96
2022/03/19 15:37:09;;;;;;;5.43;2.67;;;;;;;12.73;20.13;101601.00;4255970;33;35189;-95
2022/03/19 15:40:59;;;;;;;3.75;2.50;;;;;;;12.63;19.97;101599.16;4258863;33;33247;-95
2022/03/19 15:43:49;;;;;;;6.12;3.10;;;;;;;12.72;20.22;101599.25;4239487;33;32403;-96
2022/03/19 15:47:24;;;;;;;4.95;3.12;;;;;;;12.78;20.05;101598.41;4248833;33;32915;-96
2022/03/19 15:50:41;;;;;;;9.70;3.55;;;;;;;12.26;20.53;101603.16;4252495;33;34245;-96
2022/03/19 15:54:30;;;;;;;4.93;2.62;;;;;;;12.43;20.50;101595.50;4239042;33;32298;-96
2022/03/19 15:57:39;;;;;;;4.72;2.47;;;;;;;11.09;21.92;101605.06;4249940;33;34485;-96
2022/03/19 16:01:09;;;;;;;5.75;3.30;;;;;;;11.49;21.35;101602.16;4240159;33;33074;-96
2022/03/19 16:04:19;;;;;;;6.45;3.15;;;;;;;11.14;21.93;101601.66;4241914;33;33147;-96
2022/03/19 16:07:51;;;;;;;6.20;3.30;;;;;;;11.42;21.90;101603.81;4244300;33;31435;-93
2022/03/19 16:10:43;;;;;;;3.90;2.58;;;;;;;11.45;21.95;101608.16;4254979;33;33884;-96
2022/03/19 16:13:36;;;;;;;4.90;3.30;;;;;;;11.38;21.79;101611.53;4238743;33;35135;-95
2022/03/19 16:16:49;;;;;;;6.55;3.62;;;;;;;11.24;21.80;101611.34;4253417;33;34604;-96
2022/03/19 16:19:58;;;;;;;4.45;2.53;;;;;;;11.02;22.24;101618.81;4256675;33;34031;-96
2022/03/19 16:23:15;;;;;;;6.72;3.67;;;;;;;11.13;21.66;101615.50;4257299;33;32699;-96
2022/03/19 16:25:45;;;;;;;2.58;2.22;;;;;;;11.14;21.89;101618.12;4255348;33;34848;-95
2022/03/19 16:28:36;;;;;;;5.25;3.15;;;;;;;11.05;21.90;101623.19;4236586;33;33756;-96
2022/03/19 16:31:25;;;;;;;5.55;3.78;;;;;;;11.22;21.52;101626.03;4241997;33;32808;-96
2022/03/19 16:34:55;;;;;;;5.20;3.30;;;;;;;11.00;22.14;101635.22;4258052;33;33635;-96
2022/03/19 16:37:59;;;;;;;7.03;3.72;;;;;;;10.95;22.51;101637.75;4241193;33;33816;-96
2022/03/19 16:41:31;;;;;;;6.28;3.85;;;;;;;11.23;22.28;101641.62;4245886;33;33783;-96
2022/03/19 16:44:41;;;;;;;4.60;3.12;;;;;;;10.56;22.66;101638.81;4244096;33;33144;-96
2022/03/19 16:48:10;;;;;;;6.68;3.08;;;;;;;10.80;22.70;101642.66;4247238;33;33435;-96
2022/03/19 16:51:21;;;;;;;6.68;3.60;;;;;;;10.44;23.16;101648.97;4246777;33;33654;-96
2022/03/19 16:54:50;;;;;;;5.62;3.58;;;;;;;10.49;23.41;101654.25;4242668;33;33307;-95
2022/03/19 16:58:01;;;;;;;6.18;3.87;;;;;;;10.64;23.71;101663.16;4241491;33;32296;-96
2022/03/19 17:01:13;;;;;;;4.80;2.85;;;;;;;10.23;23.85;101660.63;4254425;33;34112;-96
2022/03/19 17:04:07;;;;;;;6.53;2.78;;;;;;;10.55;23.38;101667.31;4244670;33;34023;-96
2022/03/19 17:06:59;;;;;;;5.75;4.00;;;;;;;10.30;23.41;101660.78;4258889;33;33737;-96
2022/03/19 17:09:48;;;;;;;5.23;3.43;;;;;;;10.44;23.15;101667.13;4244980;33;32763;-96
2022/03/19 17:13:21;;;;;;;7.95;3.95;;;;;;;10.08;23.34;101669.84;4262572;33;34602;-96
2022/03/19 17:16:30;;;;;;;5.30;3.42;;;;;;;10.01;23.46;101680.06;4242165;33;32723;-96
2022/03/19 17:20:20;;;;;;;6.80;4.22;;;;;;;9.91;24.16;101680.72;4244388;33;33602;-96
2022/03/19 17:23:50;;;;;;;4.60;2.50;;;;;;;9.67;24.02;101680.19;4253609;33;33462;-96
2022/03/19 17:26:59;;;;;;;6.28;3.37;;;;;;;9.81;24.36;101690.03;4245230;33;33224;-95
2022/03/19 17:30:30;;;;;;;8.18;4.55;;;;;;;9.36;24.41;101685.53;4241592;33;34056;-96
2022/03/19 17:34:00;;;;;;;7.47;3.50;;;;;;;9.29;24.81;101695.72;4246742;33;32817;-96
2022/03/19 17:37:10;;;;;;;5.12;3.08;;;;;;;9.14;25.17;101696.22;4246428;33;32538;-96
2022/03/19 17:40:39;;;;;;;5.43;3.15;;;;;;;9.11;25.37;101701.28;4243660;33;32542;-95
2022/03/19 17:43:48;;;;;;;6.35;3.80;;;;;;;9.29;25.33;101713.84;4244262;33;32168;-94
2022/03/19 17:46:41;;;;;;;6.28;3.67;;;;;;;9.28;25.39;101710.38;4240888;33;33994;-95
2022/03/19 17:49:52;;;;;;;5.03;3.30;;;;;;;9.04;24.48;101714.94;4236090;33;32510;-95
2022/03/19 17:52:32;;;;;;;7.78;3.55;;;;;;;8.99;25.13;101720.00;4244470;33;33127;-95
2022/03/19 17:55:39;;;;;;;5.43;3.10;;;;;;;8.61;24.84;101718.97;4241376;33;32688;-94
2022/03/19 17:58:30;;;;;;;5.50;3.65;;;;;;;8.60;24.74;101731.03;4240967;33;34090;-94
2022/03/19 18:02:01;;;;;;;7.45;4.00;;;;;;;8.69;24.77;101736.44;4244709;33;33569;-96
2022/03/19 18:04:36;;;;;;;5.55;3.80;;;;;;;8.55;25.34;101742.94;4238181;33;33567;-92
2022/03/19 18:07:07;;;;;;;5.22;3.25;;;;;;;8.39;24.92;101746.81;4238325;33;34111;-94
2022/03/19 18:09:45;;;;;;;7.12;4.00;;;;;;;8.51;25.18;101739.41;4238626;33;33706;-93
2022/03/19 18:12:13;;;;;;;4.25;2.80;;;;;;;8.34;25.39;101750.97;4236389;33;32458;-94
2022/03/19 18:15:23;;;;;;;4.85;3.28;;;;;;;8.46;24.83;101751.34;4250246;33;33855;-91
2022/03/19 18:18:01;;;;;;;6.10;3.42;;;;;;;8.22;25.06;101750.59;4250179;33;33070;-94
2022/03/19 18:20:34;;;;;;;6.93;3.80;;;;;;;8.44;24.95;101755.59;4254692;33;34191;-96
2022/03/19 18:23:23;;;;;;;7.12;3.60;;;;;;;8.18;25.35;101748.75;4253251;33;35101;-93
2022/03/19 18:26:01;;;;;;;7.10;3.67;;;;;;;8.44;25.24;101755.59;4245638;33;32335;-93
2022/03/19 18:28:32;;;;;;;5.80;3.85;;;;;;;8.50;25.10;101760.06;4250748;33;32901;-93
2022/03/19 18:31:11;;;;;;;7.03;3.72;;;;;;;8.30;25.43;101764.63;4239423;33;35170;-93
2022/03/19 18:33:58;;;;;;;7.20;4.95;;;;;;;8.11;25.03;101764.06;4251598;33;34131;-93
2022/03/19 18:36:28;;;;;;;6.43;3.40;;;;;;;7.96;25.77;101771.38;4237695;33;33579;-94
2022/03/19 18:39:39;;;;;;;5.37;3.28;;;;;;;8.12;25.97;101773.59;4230803;33;32523;-94
2022/03/19 18:42:34;;;;;;;5.18;3.08;;;;;;;8.13;25.97;101765.00;4245260;33;32357;-93
2022/03/19 18:45:44;;;;;;;8.88;4.82;;;;;;;7.98;25.72;101785.22;4253384;33;32624;-94
2022/03/19 18:49:14;;;;;;;7.80;3.37;;;;;;;7.64;25.85;101765.19;4236436;33;32474;-93
2022/03/19 18:52:57;;;;;;;6.80;3.62;;;;;;;7.62;26.43;101777.19;4244662;33;33004;-96
2022/03/19 18:59:36;;;;;;;6.80;3.70;;;;;;;7.18;26.91;101776.59;1237216;32;20122;-96
2022/03/19 20:54:20;;;;;;;4.30;2.80;;;;;;;6.20;26.69;101852.09;4273590;33;35469;-95
2022/03/19 20:57:00;;;;;;;3.37;2.72;;;;;;;6.44;27.09;101860.75;4259901;33;32615;-96
2022/03/19 21:00:30;;;;;;;4.65;2.87;;;;;;;6.60;26.73;101856.22;4261704;33;32252;-93
2022/03/19 21:04:05;;;;;;;3.75;2.55;;;;;;;6.63;26.85;101863.19;4272578;33;33436;-95
2022/03/19 21:07:09;;;;;;;3.60;2.87;;;;;;;6.21;27.43;101858.16;4265327;33;33827;-96
2022/03/19 21:11:41;;;;;;;5.15;3.55;;;;;;;6.64;27.08;101859.78;4429564;28;20162;-96
2022/03/19 21:16:15;;;;;;;4.93;2.80;;;;;;;6.71;26.81;101863.50;4249810;33;32065;-96
2022/03/19 21:23:41;;;;;;;4.53;2.60;;;;;;;6.43;27.46;101869.28;4251749;28;20251;-94
2022/03/19 21:26:32;;;;;;;4.12;2.65;;;;;;;5.88;27.34;101866.25;4248576;33;34966;-96
2022/03/19 21:42:15;;;;;;;8.13;3.85;;;;;;;5.84;27.37;101858.34;4276563;33;34274;-95
2022/03/19 21:45:08;;;;;;;3.80;2.65;;;;;;;5.91;27.29;101860.34;4276121;33;35070;-94
2022/03/19 21:48:17;;;;;;;5.30;2.85;;;;;;;5.73;27.57;101866.50;4275007;33;34472;-94
2022/03/19 21:50:50;;;;;;;6.37;3.10;;;;;;;5.48;27.77;101856.84;4275537;33;33343;-95
2022/03/19 21:54:01;;;;;;;6.05;2.80;;;;;;;5.38;28.19;101865.00;4273989;33;34841;-95
2022/03/19 21:58:13;;;;;;;3.83;2.70;;;;;;;5.45;28.46;101858.44;4284599;33;32941;-96
2022/03/19 22:09:15;;;;;;;6.47;2.55;;;;;;;4.89;28.46;101868.03;4169664;34;20156;-96
2022/03/19 22:21:08;;;;;;;9.05;3.30;;;;;;;4.77;28.62;101876.06;4121440;34;33737;-94
2022/03/19 22:24:56;;;;;;;3.45;2.65;;;;;;;4.75;28.43;101884.50;4128047;34;33497;-94
2022/03/19 22:32:31;;;;;;;4.85;2.45;;;;;;;4.83;28.85;101888.31;4097030;35;32785;-93
2022/03/19 22:46:18;;;;;;;3.80;3.05;;;;;;;4.77;29.31;101886.34;4211626;33;34530;-94
2022/03/19 22:50:08;;;;;;;2.67;2.42;;;;;;;4.47;29.25;101891.84;4217508;33;34912;-95
2022/03/19 22:53:17;;;;;;;4.00;2.62;;;;;;;4.85;29.07;101884.13;4235366;33;32941;-92
2022/03/19 22:56:29;;;;;;;5.47;3.72;;;;;;;4.69;29.55;101887.69;4229409;33;33295;-92
2022/03/19 22:59:39;;;;;;;4.45;3.12;;;;;;;4.86;29.17;101880.75;4235016;33;33336;-94
2022/03/19 23:03:08;;;;;;;6.10;4.07;;;;;;;4.33;29.56;101894.56;4238685;33;33098;-94
2022/03/19 23:06:57;;;;;;;7.12;3.25;;;;;;;4.33;29.51;101890.31;4264745;33;34287;-91
2022/03/19 23:31:46;;;;;;;4.18;2.97;;;;;;;4.24;29.81;101895.88;4159960;34;34535;-91
2022/03/19 23:38:01;;;;;;;3.85;3.05;;;;;;;4.13;29.48;101889.34;4156666;34;32248;-94
2022/03/19 23:49:16;;;;;;;4.82;3.12;;;;;;;4.16;30.11;101883.47;4152585;34;33388;-94
2022/03/19 23:52:24;;;;;;;3.87;2.75;;;;;;;4.05;30.30;101890.66;4216132;33;31931;-93
2022/03/19 23:55:14;;;;;;;3.58;2.40;;;;;;;4.36;30.38;101885.28;4216476;33;33585;-94
2022/03/19 23:59:04;;;;;;;3.85;2.65;;;;;;;4.43;30.25;101887.34;4221028;33;32946;-92
